createdAt,value
2018-12-14T00:01:24.193Z,36.30
2018-12-14T00:03:51.669Z,43.58
2018-12-14T00:06:19.115Z,38.80
2018-12-14T00:08:46.586Z,38.83
2018-12-14T00:11:14.037Z,33.02
2018-12-14T00:13:41.504Z,37.13
2018-12-14T00:16:08.991Z,37.30
2018-12-14T00:18:36.466Z,33.10
2018-12-14T00:21:04.025Z,37.03
2018-12-14T00:23:31.490Z,39.15
2018-12-14T00:25:58.957Z,32.05
2018-12-14T00:28:26.409Z,36.55
2018-12-14T00:30:53.879Z,30.77
2018-12-14T00:33:21.394Z,34.08
2018-12-14T00:35:49.038Z,34.50
2018-12-14T00:38:16.510Z,39.25
2018-12-14T00:40:43.982Z,34.27
2018-12-14T00:43:11.442Z,32.80
2018-12-14T00:45:38.913Z,36.73
2018-12-14T00:48:06.361Z,32.33
2018-12-14T00:50:33.829Z,41.28
2018-12-14T00:53:01.284Z,37.38
2018-12-14T00:55:28.742Z,32.90
2018-12-14T00:57:56.219Z,31.35
2018-12-14T01:00:23.712Z,29.37
2018-12-14T01:02:51.174Z,38.15
2018-12-14T01:05:18.736Z,31.42
2018-12-14T01:07:46.188Z,33.95
2018-12-14T01:10:14.618Z,31.62
2018-12-14T01:12:42.104Z,35.95
2018-12-14T01:15:09.561Z,31.27
2018-12-14T01:17:37.048Z,35.40
2018-12-14T01:20:07.656Z,36.13
2018-12-14T01:22:35.285Z,36.42
2018-12-14T01:25:03.224Z,37.35
2018-12-14T01:27:30.701Z,29.75
2018-12-14T01:29:58.163Z,39.13
2018-12-14T01:32:25.613Z,31.87
2018-12-14T01:34:53.087Z,34.25
2018-12-14T01:37:20.574Z,32.45
2018-12-14T01:39:48.061Z,37.05
2018-12-14T01:42:15.525Z,35.38
2018-12-14T01:44:42.983Z,33.78
2018-12-14T01:47:10.455Z,36.00
2018-12-14T01:49:38.009Z,30.15
2018-12-14T01:52:05.611Z,37.13
2018-12-14T01:54:33.065Z,33.78
2018-12-14T01:57:00.523Z,37.60
2018-12-14T01:59:27.997Z,33.13
2018-12-14T02:01:55.462Z,31.68
2018-12-14T02:04:22.933Z,38.17
2018-12-14T02:06:50.398Z,40.45
2018-12-14T02:09:17.907Z,33.92
2018-12-14T02:11:45.358Z,38.15
2018-12-14T02:14:12.817Z,37.08
2018-12-14T02:16:41.109Z,31.20
2018-12-14T02:19:08.586Z,33.63
2018-12-14T02:21:36.105Z,37.35
2018-12-14T02:24:03.586Z,38.70
2018-12-14T02:26:31.067Z,33.45
2018-12-14T02:28:58.529Z,31.27
2018-12-14T02:31:26.007Z,39.18
2018-12-14T02:33:53.481Z,33.28
2018-12-14T02:36:21.004Z,35.63
2018-12-14T02:38:48.463Z,30.10
2018-12-14T02:41:15.953Z,28.98
2018-12-14T02:43:43.409Z,36.40
2018-12-14T02:46:10.890Z,30.25
2018-12-14T02:48:38.345Z,33.92
2018-12-14T02:51:05.819Z,31.10
2018-12-14T02:53:33.282Z,35.90
2018-12-14T02:56:01.415Z,33.67
2018-12-14T02:58:28.865Z,30.80
2018-12-14T03:00:56.349Z,31.52
2018-12-14T03:03:23.874Z,35.90
2018-12-14T03:05:51.318Z,32.15
2018-12-14T03:08:18.887Z,30.35
2018-12-14T03:10:46.359Z,30.95
2018-12-14T03:13:13.845Z,25.77
2018-12-14T03:15:41.301Z,33.18
2018-12-14T03:18:08.770Z,33.60
2018-12-14T03:20:36.225Z,27.32
2018-12-14T03:23:03.694Z,32.85
2018-12-14T03:25:31.148Z,31.12
2018-12-14T03:27:58.630Z,34.90
2018-12-14T03:30:26.106Z,29.72
2018-12-14T03:32:53.953Z,27.17
2018-12-14T03:35:21.418Z,30.15
2018-12-14T03:37:48.875Z,33.35
2018-12-14T03:40:16.324Z,31.12
2018-12-14T03:42:44.570Z,30.45
2018-12-14T03:45:12.127Z,30.55
2018-12-14T03:47:39.676Z,33.18
2018-12-14T03:50:07.296Z,37.23
2018-12-14T03:52:34.762Z,33.65
2018-12-14T03:55:02.281Z,28.95
2018-12-14T03:57:29.782Z,31.82
2018-12-14T03:59:57.243Z,29.18
2018-12-14T04:02:24.750Z,32.67
2018-12-14T04:04:52.265Z,31.23
2018-12-14T04:07:19.716Z,31.48
2018-12-14T04:09:47.175Z,37.28
2018-12-14T04:12:14.635Z,31.87
2018-12-14T04:14:42.179Z,35.75
2018-12-14T04:17:09.624Z,30.57
2018-12-14T04:19:37.104Z,27.98
2018-12-14T04:22:04.563Z,28.85
2018-12-14T04:24:32.059Z,31.48
2018-12-14T04:26:59.509Z,30.15
2018-12-14T04:29:26.994Z,30.97
2018-12-14T04:31:54.446Z,31.55
2018-12-14T04:34:21.917Z,33.53
2018-12-14T04:36:49.377Z,29.65
2018-12-14T04:39:16.918Z,30.40
2018-12-14T04:41:44.415Z,31.10
2018-12-14T04:44:11.863Z,29.27
2018-12-14T04:46:39.336Z,28.50
2018-12-14T04:49:06.798Z,31.50
2018-12-14T04:51:34.258Z,32.38
2018-12-14T04:54:01.713Z,30.55
2018-12-14T04:56:29.187Z,26.50
2018-12-14T04:58:56.642Z,25.40
2018-12-14T05:01:24.111Z,29.77
2018-12-14T05:03:51.586Z,29.37
2018-12-14T05:06:19.054Z,30.75
2018-12-14T05:08:46.529Z,27.95
2018-12-14T05:11:13.991Z,28.70
2018-12-14T05:13:41.443Z,28.05
2018-12-14T05:16:08.903Z,30.35
2018-12-14T05:18:36.400Z,29.65
2018-12-14T05:21:03.877Z,28.12
2018-12-14T05:23:31.321Z,25.17
2018-12-14T05:25:58.797Z,22.25
2018-12-14T05:28:26.320Z,27.13
2018-12-14T05:30:53.773Z,25.15
2018-12-14T05:33:21.234Z,22.50
2018-12-14T05:35:48.706Z,29.23
2018-12-14T05:38:16.194Z,28.60
2018-12-14T05:40:43.660Z,29.70
2018-12-14T05:43:11.161Z,31.95
2018-12-14T05:45:38.627Z,31.02
2018-12-14T05:48:06.103Z,26.30
2018-12-14T05:50:33.558Z,33.60
2018-12-14T05:53:01.029Z,33.42
2018-12-14T05:55:28.484Z,26.23
2018-12-14T05:57:55.964Z,32.80
2018-12-14T06:00:23.426Z,28.50
2018-12-14T06:02:50.898Z,31.02
2018-12-14T06:05:18.522Z,27.73
2018-12-14T06:07:46.006Z,30.23
2018-12-14T06:10:13.543Z,34.20
2018-12-14T06:12:41.031Z,31.77
2018-12-14T06:15:08.512Z,31.33
2018-12-14T06:17:35.987Z,33.75
2018-12-14T06:20:03.909Z,31.15
2018-12-14T06:22:31.370Z,29.57
2018-12-14T06:24:58.841Z,33.50
2018-12-14T06:27:26.336Z,28.70
2018-12-14T06:29:53.818Z,31.52
2018-12-14T06:32:21.300Z,39.08
2018-12-14T06:34:48.752Z,34.23
2018-12-14T06:37:16.479Z,29.10
2018-12-14T06:39:43.948Z,33.05
2018-12-14T06:42:11.879Z,35.83
2018-12-14T06:44:39.368Z,28.75
2018-12-14T06:47:06.830Z,33.25
2018-12-14T06:49:34.400Z,33.48
2018-12-14T06:52:01.870Z,30.02
2018-12-14T06:54:29.339Z,30.23
2018-12-14T06:56:56.822Z,27.58
2018-12-14T06:59:24.296Z,33.80
2018-12-14T07:01:52.503Z,29.32
2018-12-14T07:04:19.965Z,44.85
2018-12-14T07:06:47.413Z,33.15
2018-12-14T07:09:14.879Z,30.48
2018-12-14T07:11:42.353Z,35.63
2018-12-14T07:14:09.838Z,34.73
2018-12-14T07:16:37.379Z,32.85
2018-12-14T07:19:04.833Z,32.53
2018-12-14T07:21:32.322Z,33.78
2018-12-14T07:23:59.785Z,29.98
2018-12-14T07:26:27.333Z,33.48
2018-12-14T07:28:55.172Z,36.17
2018-12-14T07:31:23.124Z,29.20
2018-12-14T07:33:50.581Z,33.00
2018-12-14T07:36:18.058Z,35.20
2018-12-14T07:38:48.312Z,30.10
2018-12-14T07:41:15.029Z,33.98
2018-12-14T07:43:42.474Z,34.73
2018-12-14T07:46:09.960Z,27.15
2018-12-14T07:48:37.430Z,32.93
2018-12-14T07:51:04.966Z,27.35
2018-12-14T07:53:32.445Z,30.70
2018-12-14T07:55:59.998Z,30.20
2018-12-14T07:58:27.490Z,25.32
2018-12-14T08:00:54.942Z,29.37
2018-12-14T08:03:22.425Z,32.93
2018-12-14T08:05:49.903Z,28.52
2018-12-14T08:08:17.401Z,28.95
2018-12-14T08:10:45.831Z,30.95
2018-12-14T08:13:13.299Z,37.67
2018-12-14T08:15:40.749Z,28.47
2018-12-14T08:18:08.337Z,29.42
2018-12-14T08:20:35.827Z,31.00
2018-12-14T08:23:03.303Z,28.60
2018-12-14T08:25:30.750Z,28.70
2018-12-14T08:27:58.233Z,26.25
2018-12-14T08:30:25.691Z,26.73
2018-12-14T08:32:53.146Z,26.52
2018-12-14T08:35:20.610Z,27.07
2018-12-14T08:37:48.182Z,21.70
2018-12-14T08:40:16.198Z,24.67
2018-12-14T08:42:43.673Z,20.40
2018-12-14T08:45:11.164Z,26.57
2018-12-14T08:47:38.619Z,30.45
2018-12-14T08:50:06.178Z,28.95
2018-12-14T08:52:34.354Z,24.92
2018-12-14T08:55:01.847Z,25.77
2018-12-14T08:57:29.304Z,24.40
2018-12-14T08:59:56.779Z,23.18
2018-12-14T09:02:24.250Z,24.37
2018-12-14T09:04:51.718Z,26.15
2018-12-14T09:07:24.547Z,29.15
2018-12-14T09:09:48.917Z,22.95
2018-12-14T09:12:16.370Z,24.32
2018-12-14T09:14:43.862Z,23.90
2018-12-14T09:17:11.306Z,20.48
2018-12-14T09:19:38.826Z,26.20
2018-12-14T09:22:06.298Z,23.83
2018-12-14T09:24:33.755Z,21.90
2018-12-14T09:27:01.232Z,24.55
2018-12-14T09:29:28.707Z,25.65
2018-12-14T09:31:56.170Z,25.57
2018-12-14T09:34:23.653Z,22.42
2018-12-14T09:36:51.249Z,25.57
2018-12-14T09:39:18.690Z,26.12
2018-12-14T09:41:46.725Z,25.35
2018-12-14T09:44:14.224Z,25.92
2018-12-14T09:46:41.707Z,23.77
2018-12-14T09:49:09.173Z,22.67
2018-12-14T09:51:36.669Z,21.62
2018-12-14T09:54:04.125Z,30.12
2018-12-14T09:56:31.585Z,27.90
2018-12-14T09:58:59.167Z,26.02
2018-12-14T10:01:26.614Z,24.27
2018-12-14T10:03:54.095Z,24.72
2018-12-14T10:06:21.649Z,23.20
2018-12-14T10:08:49.121Z,24.15
2018-12-14T10:11:16.838Z,25.32
2018-12-14T10:13:44.319Z,27.75
2018-12-14T10:16:12.353Z,22.70
2018-12-14T10:18:40.302Z,22.32
2018-12-14T10:21:07.758Z,22.05
2018-12-14T10:23:35.242Z,20.65
2018-12-14T10:26:02.714Z,22.07
2018-12-14T10:28:30.289Z,20.57
2018-12-14T10:30:57.741Z,24.65
2018-12-14T10:33:25.235Z,27.32
2018-12-14T10:35:52.788Z,26.65
2018-12-14T10:38:20.555Z,22.82
2018-12-14T10:40:48.030Z,30.05
2018-12-14T10:43:15.570Z,29.18
2018-12-14T10:45:43.308Z,24.75
2018-12-14T10:48:10.782Z,31.70
2018-12-14T10:50:39.643Z,23.95
2018-12-14T10:53:09.505Z,34.05
2018-12-14T10:55:36.990Z,30.35
2018-12-14T10:58:04.455Z,33.40
2018-12-14T11:00:37.722Z,29.98
2018-12-14T11:03:05.165Z,24.65
2018-12-14T11:05:32.635Z,25.08
2018-12-14T11:08:00.105Z,23.98
2018-12-14T11:10:27.578Z,25.88
2018-12-14T11:12:55.052Z,28.15
2018-12-14T11:15:22.524Z,25.08
2018-12-14T11:17:50.060Z,23.22
2018-12-14T11:20:18.508Z,21.93
2018-12-14T11:22:45.970Z,25.43
2018-12-14T11:25:13.537Z,28.12
2018-12-14T11:27:41.786Z,25.45
2018-12-14T11:30:09.483Z,27.42
2018-12-14T11:32:37.065Z,23.77
2018-12-14T11:35:04.612Z,28.42
2018-12-14T11:37:32.091Z,29.07
2018-12-14T11:40:00.233Z,29.35
2018-12-14T11:42:27.693Z,20.55
2018-12-14T11:44:55.183Z,28.17
2018-12-14T11:47:22.658Z,27.32
2018-12-14T11:49:50.128Z,27.17
2018-12-14T11:52:17.608Z,22.70
2018-12-14T11:54:45.075Z,24.60
2018-12-14T11:57:12.557Z,25.43
2018-12-14T11:59:40.013Z,27.55
2018-12-14T12:02:08.337Z,25.37
2018-12-14T12:04:35.834Z,24.82
2018-12-14T12:07:03.297Z,27.52
2018-12-14T12:09:30.790Z,25.37
2018-12-14T12:11:58.257Z,26.23
2018-12-14T12:14:27.034Z,31.15
2018-12-14T12:16:54.819Z,28.30
2018-12-14T12:19:22.294Z,30.10
2018-12-14T12:21:49.913Z,24.63
2018-12-14T12:24:17.421Z,24.45
2018-12-14T12:26:44.873Z,35.80
2018-12-14T12:29:12.350Z,30.00
2018-12-14T12:31:39.805Z,30.00
2018-12-14T12:34:07.269Z,25.02
2018-12-14T12:36:34.737Z,31.02
2018-12-14T12:39:02.232Z,25.77
2018-12-14T12:41:29.705Z,32.30
2018-12-14T12:43:57.295Z,27.62
2018-12-14T12:46:24.770Z,24.98
2018-12-14T12:48:52.532Z,24.52
2018-12-14T12:51:20.238Z,32.65
2018-12-14T12:53:47.690Z,26.73
2018-12-14T12:56:15.463Z,29.63
2018-12-14T12:58:42.934Z,25.37
2018-12-14T13:01:11.414Z,23.38
2018-12-14T13:03:38.910Z,25.68
2018-12-14T13:06:06.361Z,21.65
2018-12-14T13:08:33.917Z,26.40
2018-12-14T13:11:01.377Z,27.75
2018-12-14T13:13:28.836Z,30.25
2018-12-14T13:15:56.325Z,26.15
2018-12-14T13:18:23.770Z,29.20
2018-12-14T13:20:51.253Z,26.70
2018-12-14T13:23:18.718Z,28.75
2018-12-14T13:25:46.199Z,31.68
2018-12-14T13:28:14.179Z,30.57
2018-12-14T13:30:41.697Z,31.87
2018-12-14T13:33:09.338Z,33.10
2018-12-14T13:35:36.957Z,28.73
2018-12-14T13:38:04.435Z,30.92
2018-12-14T13:40:31.992Z,29.95
2018-12-14T13:42:59.578Z,23.47
2018-12-14T13:45:27.046Z,27.10
2018-12-14T13:47:54.526Z,29.30
2018-12-14T13:50:21.993Z,27.70
2018-12-14T13:52:49.478Z,26.37
2018-12-14T13:55:17.831Z,31.12
2018-12-14T13:57:45.649Z,30.62
2018-12-14T14:00:13.265Z,33.18
2018-12-14T14:02:40.737Z,24.72
2018-12-14T14:05:08.338Z,21.45
2018-12-14T14:07:35.842Z,25.25
2018-12-14T14:10:04.911Z,27.70
2018-12-14T14:12:32.393Z,21.48
2018-12-14T14:14:59.960Z,26.00
2018-12-14T14:17:27.526Z,27.37
2018-12-14T14:19:55.167Z,22.52
2018-12-14T14:22:22.936Z,25.75
2018-12-14T14:24:50.378Z,23.75
2018-12-14T14:27:17.834Z,22.85
2018-12-14T14:29:46.177Z,22.73
2018-12-14T14:32:13.634Z,25.30
2018-12-14T14:34:41.126Z,23.57
2018-12-14T14:37:08.582Z,25.72
2018-12-14T14:39:36.061Z,24.23
2018-12-14T14:42:03.519Z,30.52
2018-12-14T14:44:31.343Z,35.13
2018-12-14T14:46:59.075Z,36.30
2018-12-14T14:49:26.550Z,26.33
2018-12-14T14:51:54.389Z,28.55
2018-12-14T14:54:22.694Z,26.75
2018-12-14T14:56:50.129Z,25.62
2018-12-14T14:59:17.605Z,25.60
2018-12-14T15:01:45.074Z,25.30
2018-12-14T15:04:12.552Z,28.80
2018-12-14T15:06:40.006Z,30.92
2018-12-14T15:09:08.432Z,28.57
2018-12-14T15:11:35.927Z,23.98
2018-12-14T15:14:03.386Z,28.10
2018-12-14T15:16:30.850Z,25.55
2018-12-14T15:18:58.313Z,21.95
2018-12-14T15:21:25.788Z,25.35
2018-12-14T15:23:53.334Z,23.42
2018-12-14T15:26:20.795Z,29.77
2018-12-14T15:28:48.263Z,26.97
2018-12-14T15:31:15.745Z,26.85
2018-12-14T15:33:43.290Z,40.40
2018-12-14T15:36:10.777Z,21.37
2018-12-14T15:38:41.274Z,20.35
2018-12-14T15:41:08.732Z,20.82
2018-12-14T15:43:36.228Z,23.22
2018-12-14T15:46:03.713Z,22.93
2018-12-14T15:48:31.174Z,18.45
2018-12-14T15:50:58.646Z,23.42
2018-12-14T15:53:26.121Z,25.32
2018-12-14T15:55:53.857Z,21.55
2018-12-14T15:58:21.538Z,22.93
2018-12-14T16:00:48.973Z,28.73
2018-12-14T16:03:16.918Z,26.95
2018-12-14T16:05:45.209Z,24.00
2018-12-14T16:08:12.690Z,23.15
2018-12-14T16:10:43.068Z,24.02
2018-12-14T16:13:10.542Z,25.10
2018-12-14T16:15:38.010Z,27.17
2018-12-14T16:18:05.487Z,24.92
2018-12-14T16:20:32.956Z,30.20
2018-12-14T16:23:00.434Z,23.15
2018-12-14T16:25:27.900Z,26.02
2018-12-14T16:27:55.471Z,32.40
2018-12-14T16:30:22.949Z,24.20
2018-12-14T16:32:50.614Z,27.52
2018-12-14T16:35:18.075Z,22.67
2018-12-14T16:37:45.540Z,25.90
2018-12-14T16:40:13.101Z,24.92
2018-12-14T16:42:40.571Z,28.17
2018-12-14T16:45:08.257Z,22.98
2018-12-14T16:47:35.816Z,24.37
2018-12-14T16:50:04.210Z,25.10
2018-12-14T16:52:31.878Z,25.97
2018-12-14T16:54:59.403Z,24.20
2018-12-14T16:57:26.872Z,22.10
2018-12-14T16:59:54.414Z,24.50
2018-12-14T17:02:21.878Z,21.02
2018-12-14T17:04:49.358Z,24.23
2018-12-14T17:07:17.712Z,23.42
2018-12-14T17:09:45.204Z,27.82
2018-12-14T17:12:12.689Z,28.38
2018-12-14T17:14:40.160Z,25.75
2018-12-14T17:17:07.643Z,28.12
2018-12-14T17:19:35.117Z,26.45
2018-12-14T17:22:02.618Z,21.62
2018-12-14T17:24:30.555Z,25.02
2018-12-14T17:26:58.025Z,24.40
2018-12-14T17:29:25.578Z,23.30
2018-12-14T17:31:53.071Z,18.25
2018-12-14T17:34:20.515Z,24.23
2018-12-14T17:36:48.001Z,25.50
2018-12-14T17:39:15.729Z,25.15
2018-12-14T17:41:43.258Z,28.50
2018-12-14T17:44:10.720Z,33.08
2018-12-14T17:46:38.466Z,27.82
2018-12-14T17:49:05.918Z,25.52
2018-12-14T17:51:33.770Z,19.98
2018-12-14T17:54:01.216Z,24.07
2018-12-14T17:56:28.696Z,22.35
2018-12-14T17:58:56.153Z,24.90
2018-12-14T18:01:23.622Z,26.05
2018-12-14T18:03:51.086Z,27.95
2018-12-14T18:06:19.278Z,27.58
2018-12-14T18:08:46.835Z,23.77
2018-12-14T18:11:14.290Z,26.37
2018-12-14T18:13:41.765Z,27.37
2018-12-14T18:16:09.400Z,21.42
2018-12-14T18:18:36.868Z,21.33
2018-12-14T18:21:04.331Z,22.55
2018-12-14T18:23:31.893Z,20.20
2018-12-14T18:25:59.345Z,21.75
2018-12-14T18:28:26.837Z,28.45
2018-12-14T18:30:54.308Z,33.85
2018-12-14T18:33:21.788Z,32.83
2018-12-14T18:35:49.275Z,26.00
2018-12-14T18:38:16.759Z,30.23
2018-12-14T18:40:44.239Z,26.68
2018-12-14T18:43:11.820Z,20.55
2018-12-14T18:45:39.387Z,26.93
2018-12-14T18:48:06.844Z,20.82
2018-12-14T18:50:34.326Z,24.30
2018-12-14T18:53:01.784Z,26.93
2018-12-14T18:55:29.258Z,23.57
2018-12-14T18:57:56.730Z,25.12
2018-12-14T19:00:24.223Z,24.60
2018-12-14T19:02:51.685Z,24.18
2018-12-14T19:05:19.181Z,22.45
2018-12-14T19:07:46.650Z,27.87
2018-12-14T19:10:14.122Z,19.98
2018-12-14T19:12:42.342Z,26.48
2018-12-14T19:15:09.811Z,25.12
